Time;durP1;ratioP1;P1;durP2;ratioP2;P2;SDS_P1;SDS_P2;PMS_P1;PMS_P2;Temp;Humidity;BMP_temperature;BMP_pressure;BME280_temperature;BME280_humidity;BME280_pressure;Samples;Min_cycle;Max_cycle;Signal;HPM_P1;HPM_P2
2024/01/09 00:02:10;;;;;;;;;;;;;;;3.38;84.56;94995.09;5074274;28;938;-62
2024/01/09 00:04:44;;;;;;;;;;;;;;;3.39;85.17;94991.50;5074458;28;948;-62
2024/01/09 00:07:16;;;;;;;;;;;;;;;3.35;85.63;95001.47;5073824;28;1995;-62
2024/01/09 00:09:50;;;;;;;;;;;;;;;3.28;83.44;95009.06;5074309;28;977;-62
2024/01/09 00:12:25;;;;;;;;;;;;;;;3.36;84.82;95013.72;5074217;28;915;-61
2024/01/09 00:14:59;;;;;;;;;;;;;;;3.47;86.01;95007.56;5074101;28;918;-62
2024/01/09 00:17:33;;;;;;;;;;;;;;;3.45;86.54;95017.44;5074086;28;993;-62
2024/01/09 00:20:08;;;;;;;;;;;;;;;3.43;84.13;95024.66;5074128;28;1019;-61
2024/01/09 00:22:42;;;;;;;;;;;;;;;3.36;84.01;95020.78;5074158;28;1021;-62
2024/01/09 00:25:18;;;;;;;;;;;;;;;3.40;84.46;95019.63;5073700;28;2000;-62
2024/01/09 00:27:52;;;;;;;;;;;;;;;3.28;82.90;95035.47;5073705;28;925;-61
2024/01/09 00:30:26;;;;;;;;;;;;;;;3.10;82.86;95037.72;5073857;28;946;-61
2024/01/09 00:33:01;;;;;;;;;;;;;;;3.13;82.50;95037.50;5073872;28;982;-62
2024/01/09 00:35:32;;;;;;;;;;;;;;;3.14;83.34;95046.25;5073411;28;1598;-62
2024/01/09 00:38:06;;;;;;;;;;;;;;;3.27;81.59;95040.88;5073419;28;1390;-61
2024/01/09 00:40:39;;;;;;;;;;;;;;;2.99;81.87;95044.78;5073567;28;929;-62
2024/01/09 00:43:13;;;;;;;;;;;;;;;2.97;83.27;95049.34;5073286;28;1183;-62
2024/01/09 00:45:48;;;;;;;;;;;;;;;3.05;82.73;95049.59;5073568;28;1910;-62
2024/01/09 00:48:22;;;;;;;;;;;;;;;3.07;83.21;95050.31;5073709;28;930;-62
2024/01/09 00:50:56;;;;;;;;;;;;;;;3.07;83.16;95051.19;5073353;28;1003;-61
2024/01/09 00:53:31;;;;;;;;;;;;;;;3.00;82.48;95051.75;5073534;28;1206;-62
2024/01/09 00:56:05;;;;;;;;;;;;;;;2.81;83.75;95057.59;5073637;28;915;-61
2024/01/09 00:58:39;;;;;;;;;;;;;;;2.80;83.96;95061.19;5073624;28;963;-62
2024/01/09 01:01:14;;;;;;;;;;;;;;;2.69;85.27;95067.28;5073452;28;927;-62
2024/01/09 01:03:48;;;;;;;;;;;;;;;2.94;82.67;95066.28;5073573;28;1154;-62
2024/01/09 01:06:23;;;;;;;;;;;;;;;2.74;84.43;95067.78;5073038;28;1906;-62
2024/01/09 01:08:57;;;;;;;;;;;;;;;2.78;83.78;95066.59;5073369;28;940;-62
2024/01/09 01:11:32;;;;;;;;;;;;;;;2.81;82.70;95063.72;5073377;28;1025;-62
2024/01/09 01:14:06;;;;;;;;;;;;;;;2.74;84.91;95070.44;5073117;28;988;-62
2024/01/09 01:16:38;;;;;;;;;;;;;;;2.80;83.43;95071.75;5073176;28;1475;-62
2024/01/09 01:19:13;;;;;;;;;;;;;;;2.83;82.47;95068.91;5073145;28;958;-62
2024/01/09 01:21:44;;;;;;;;;;;;;;;2.81;83.12;95076.06;5073186;28;974;-62
2024/01/09 01:24:18;;;;;;;;;;;;;;;2.73;84.20;95071.38;5073219;28;994;-62
2024/01/09 01:26:52;;;;;;;;;;;;;;;2.83;84.06;95075.03;5076642;28;1992;-62
2024/01/09 01:29:27;;;;;;;;;;;;;;;2.77;83.22;95070.22;5077067;28;915;-61
2024/01/09 01:32:01;;;;;;;;;;;;;;;2.65;83.64;95074.59;5077249;28;970;-62
2024/01/09 01:34:37;;;;;;;;;;;;;;;2.53;82.22;95072.88;5077368;28;1028;-62
2024/01/09 01:37:11;;;;;;;;;;;;;;;2.53;82.81;95076.34;5076923;28;945;-61
2024/01/09 01:39:44;;;;;;;;;;;;;;;2.65;83.75;95077.22;5077274;28;968;-61
2024/01/09 01:42:18;;;;;;;;;;;;;;;2.83;82.51;95080.31;5076862;28;1080;-62
2024/01/09 01:44:53;;;;;;;;;;;;;;;2.85;82.22;95081.03;5077184;28;892;-62
2024/01/09 01:47:27;;;;;;;;;;;;;;;2.77;82.27;95074.63;5076532;28;1997;-61
2024/01/09 01:50:02;;;;;;;;;;;;;;;2.70;82.53;95076.91;5077057;28;934;-61
2024/01/09 01:52:36;;;;;;;;;;;;;;;2.66;83.61;95080.72;5076947;28;1214;-61
2024/01/09 01:55:11;;;;;;;;;;;;;;;2.74;82.53;95071.25;5076628;28;987;-61
2024/01/09 01:57:45;;;;;;;;;;;;;;;2.83;81.44;95072.38;5076677;28;1009;-62
2024/01/09 02:00:20;;;;;;;;;;;;;;;2.70;82.64;95072.44;5076494;28;934;-62
2024/01/09 02:02:54;;;;;;;;;;;;;;;2.65;81.37;95077.22;5060185;28;895;-62
2024/01/09 02:05:30;;;;;;;;;;;;;;;2.48;82.05;95077.66;5076305;28;1975;-61
2024/01/09 02:08:05;;;;;;;;;;;;;;;2.62;82.50;95082.75;5076466;28;922;-61
2024/01/09 02:10:36;;;;;;;;;;;;;;;2.64;82.65;95083.47;5076643;28;1714;-61
2024/01/09 02:13:12;;;;;;;;;;;;;;;2.69;82.30;95091.03;5076259;28;1004;-62
2024/01/09 02:15:44;;;;;;;;;;;;;;;2.62;83.35;95085.41;5076567;28;1017;-62
2024/01/09 02:18:18;;;;;;;;;;;;;;;2.79;83.43;95089.41;5076143;28;1850;-62
2024/01/09 02:20:52;;;;;;;;;;;;;;;2.79;84.52;95078.84;5059539;28;1696;-61
2024/01/09 02:23:26;;;;;;;;;;;;;;;2.98;84.27;95088.00;5076288;28;933;-61
2024/01/09 02:26:01;;;;;;;;;;;;;;;2.93;82.85;95089.19;5059594;28;1914;-62
2024/01/09 02:28:36;;;;;;;;;;;;;;;2.86;85.19;95082.69;5076119;28;1358;-61
2024/01/09 02:31:10;;;;;;;;;;;;;;;2.86;84.99;95073.94;5076006;28;1000;-62
2024/01/09 02:33:45;;;;;;;;;;;;;;;2.69;86.49;95073.44;5076269;28;1004;-62
2024/01/09 02:36:19;;;;;;;;;;;;;;;2.77;85.33;95086.06;5076157;28;927;-61
2024/01/09 02:38:54;;;;;;;;;;;;;;;2.87;84.31;95083.56;5075855;28;917;-62
2024/01/09 02:41:28;;;;;;;;;;;;;;;2.92;83.28;95086.66;5075868;28;1602;-61
2024/01/09 02:44:02;;;;;;;;;;;;;;;2.88;83.45;95082.56;5075650;28;1259;-61
2024/01/09 02:46:36;;;;;;;;;;;;;;;3.00;84.69;95080.81;5076295;28;1914;-61
2024/01/09 02:49:11;;;;;;;;;;;;;;;2.94;83.98;95082.13;5075842;28;1005;-61
2024/01/09 02:51:42;;;;;;;;;;;;;;;2.88;84.19;95083.44;5075791;28;2233;-61
2024/01/09 02:54:16;;;;;;;;;;;;;;;2.92;84.88;95094.59;5075741;28;970;-60
2024/01/09 02:56:51;;;;;;;;;;;;;;;2.84;85.68;95084.59;5075574;28;921;-61
2024/01/09 02:59:26;;;;;;;;;;;;;;;2.91;85.73;95099.03;5075746;28;1000;-62
2024/01/09 03:02:00;;;;;;;;;;;;;;;2.84;85.90;95092.53;5075596;28;912;-62
2024/01/09 03:04:34;;;;;;;;;;;;;;;2.91;83.40;95092.91;5075391;28;959;-61
2024/01/09 03:07:09;;;;;;;;;;;;;;;2.86;81.91;95087.97;5075513;28;1975;-61
2024/01/09 03:09:43;;;;;;;;;;;;;;;2.84;82.94;95096.97;5075450;28;1521;-62
2024/01/09 03:12:17;;;;;;;;;;;;;;;2.83;82.56;95095.31;5075489;28;935;-62
2024/01/09 03:14:52;;;;;;;;;;;;;;;2.79;82.25;95088.56;5075729;28;942;-61
2024/01/09 03:17:26;;;;;;;;;;;;;;;2.74;82.38;95088.91;5075291;28;931;-61
2024/01/09 03:20:00;;;;;;;;;;;;;;;2.74;83.46;95096.84;5075449;28;955;-62
2024/01/09 03:22:34;;;;;;;;;;;;;;;2.67;83.62;95093.78;5075031;28;1459;-61
2024/01/09 03:25:09;;;;;;;;;;;;;;;2.63;85.04;95102.06;5075309;28;911;-61
2024/01/09 03:27:43;;;;;;;;;;;;;;;2.62;84.39;95097.72;5075185;28;1009;-61
2024/01/09 03:30:15;;;;;;;;;;;;;;;2.66;85.19;95094.75;5074928;28;1474;-61
2024/01/09 03:32:47;;;;;;;;;;;;;;;2.73;84.88;95100.41;5074822;28;1032;-62
2024/01/09 03:35:20;;;;;;;;;;;;;;;2.73;84.18;95097.78;5074732;28;937;-61
2024/01/09 03:37:54;;;;;;;;;;;;;;;2.69;84.55;95098.97;5075056;28;919;-61
2024/01/09 03:40:25;;;;;;;;;;;;;;;2.73;83.49;95103.06;5074899;28;1022;-61
2024/01/09 03:42:59;;;;;;;;;;;;;;;2.71;83.33;95104.97;5074489;28;1092;-62
2024/01/09 03:45:33;;;;;;;;;;;;;;;2.61;83.86;95101.34;5074597;28;1987;-61
2024/01/09 03:48:06;;;;;;;;;;;;;;;2.43;83.20;95103.53;5073938;28;1861;-62
2024/01/09 03:50:40;;;;;;;;;;;;;;;2.37;82.60;95106.63;5074723;28;973;-62
2024/01/09 03:53:15;;;;;;;;;;;;;;;2.28;82.04;95113.44;5074587;28;1159;-61
2024/01/09 03:55:49;;;;;;;;;;;;;;;2.31;82.18;95106.09;5074695;28;933;-61
2024/01/09 03:58:23;;;;;;;;;;;;;;;2.43;82.51;95109.66;5074272;28;1822;-61
2024/01/09 04:00:58;;;;;;;;;;;;;;;2.47;84.12;95105.00;5074605;28;1036;-62
2024/01/09 04:03:30;;;;;;;;;;;;;;;2.44;84.71;95108.69;5074106;28;1397;-60
2024/01/09 04:06:04;;;;;;;;;;;;;;;2.45;84.75;95107.75;5074359;28;1902;-61
2024/01/09 04:08:37;;;;;;;;;;;;;;;2.57;83.71;95110.44;5074410;28;934;-60
2024/01/09 04:11:11;;;;;;;;;;;;;;;2.35;83.83;95117.28;5074031;28;1037;-59
2024/01/09 04:13:44;;;;;;;;;;;;;;;2.37;81.20;95112.72;5074007;28;940;-60
2024/01/09 04:16:19;;;;;;;;;;;;;;;2.32;81.60;95112.25;5073945;28;952;-61
2024/01/09 04:18:52;;;;;;;;;;;;;;;2.36;81.58;95124.25;5074241;28;1476;-61
2024/01/09 04:21:26;;;;;;;;;;;;;;;2.21;82.62;95115.66;5073881;28;735;-61
2024/01/09 04:24:00;;;;;;;;;;;;;;;2.27;82.40;95117.00;5073533;28;1080;-61
2024/01/09 04:26:35;;;;;;;;;;;;;;;2.19;81.52;95132.56;5073691;28;1983;-61
2024/01/09 04:29:09;;;;;;;;;;;;;;;2.10;82.98;95145.44;5073966;28;1354;-60
2024/01/09 04:31:43;;;;;;;;;;;;;;;2.01;82.31;95148.75;5074046;28;982;-62
2024/01/09 04:34:17;;;;;;;;;;;;;;;2.17;82.52;95147.66;5073649;28;993;-61
2024/01/09 04:36:52;;;;;;;;;;;;;;;2.00;82.11;95147.06;5073887;28;1082;-61
2024/01/09 04:39:26;;;;;;;;;;;;;;;2.13;80.91;95136.47;5073697;28;1086;-62
2024/01/09 04:42:00;;;;;;;;;;;;;;;2.01;80.69;95151.41;5073450;28;1077;-63
2024/01/09 04:44:35;;;;;;;;;;;;;;;1.96;80.56;95156.13;5073771;28;1469;-62
2024/01/09 04:47:07;;;;;;;;;;;;;;;2.03;81.37;95154.75;5073442;28;1990;-62
2024/01/09 04:49:44;;;;;;;;;;;;;;;2.16;81.36;95154.69;5073747;28;995;-62
2024/01/09 04:52:17;;;;;;;;;;;;;;;2.13;81.55;95153.13;5073317;28;1515;-62
2024/01/09 04:54:49;;;;;;;;;;;;;;;2.06;81.14;95158.97;5073674;28;1524;-62
2024/01/09 04:57:22;;;;;;;;;;;;;;;1.99;81.89;95160.34;5073476;28;1679;-62
2024/01/09 04:59:54;;;;;;;;;;;;;;;1.94;82.51;95169.44;5072748;28;1380;-62
2024/01/09 05:02:27;;;;;;;;;;;;;;;1.90;80.30;95172.41;5073328;28;1489;-61
2024/01/09 05:05:01;;;;;;;;;;;;;;;1.91;81.00;95188.09;5073294;28;1003;-62
2024/01/09 05:07:33;;;;;;;;;;;;;;;1.88;80.88;95182.22;5072990;28;1993;-62
2024/01/09 05:10:05;;;;;;;;;;;;;;;1.83;80.68;95179.88;5073352;28;1667;-62
2024/01/09 05:12:37;;;;;;;;;;;;;;;1.89;80.77;95190.00;5073340;28;1567;-62
2024/01/09 05:15:08;;;;;;;;;;;;;;;1.78;82.40;95189.91;5073353;28;1554;-62
2024/01/09 05:17:40;;;;;;;;;;;;;;;1.69;81.54;95185.25;5073366;28;1630;-63
2024/01/09 05:20:12;;;;;;;;;;;;;;;1.70;81.13;95169.34;5056296;28;1600;-60
2024/01/09 05:22:42;;;;;;;;;;;;;;;1.64;81.02;95172.41;5073233;28;1552;-61
2024/01/09 05:25:13;;;;;;;;;;;;;;;1.60;81.90;95185.94;5073288;28;1491;-60
2024/01/09 05:27:48;;;;;;;;;;;;;;;1.78;80.89;95192.53;5073343;28;1004;-62
2024/01/09 05:30:20;;;;;;;;;;;;;;;1.74;80.97;95199.81;5073133;28;1457;-63
2024/01/09 05:32:54;;;;;;;;;;;;;;;1.74;81.30;95201.59;5073321;28;1009;-62
2024/01/09 05:35:26;;;;;;;;;;;;;;;1.80;80.12;95210.88;5073021;28;1486;-62
2024/01/09 05:37:58;;;;;;;;;;;;;;;1.79;80.41;95220.59;5056107;28;1594;-62
2024/01/09 05:40:33;;;;;;;;;;;;;;;1.84;79.56;95222.91;5073046;28;951;-62
2024/01/09 05:43:04;;;;;;;;;;;;;;;1.78;79.45;95225.97;5072870;28;1446;-62
2024/01/09 05:45:36;;;;;;;;;;;;;;;1.73;80.27;95229.78;5072958;28;2002;-62
2024/01/09 05:48:09;;;;;;;;;;;;;;;1.86;79.36;95231.53;5073069;28;1359;-62
2024/01/09 05:50:41;;;;;;;;;;;;;;;1.82;79.80;95228.31;5073054;28;1617;-62
2024/01/09 05:53:13;;;;;;;;;;;;;;;1.94;79.91;95227.44;5072864;28;1483;-62
2024/01/09 05:55:45;;;;;;;;;;;;;;;2.12;80.73;95235.84;5073013;28;1466;-62
2024/01/09 05:58:19;;;;;;;;;;;;;;;2.34;79.95;95252.81;5072797;28;1497;-62
2024/01/09 06:00:50;;;;;;;;;;;;;;;2.31;81.87;95253.88;5072934;28;1605;-60
2024/01/09 06:03:23;;;;;;;;;;;;;;;2.33;82.49;95266.94;5072719;28;1514;-61
2024/01/09 06:05:56;;;;;;;;;;;;;;;2.24;82.21;95263.19;5072503;28;1998;-61
2024/01/09 06:08:28;;;;;;;;;;;;;;;2.28;82.97;95275.22;5071945;28;1450;-62
2024/01/09 06:11:00;;;;;;;;;;;;;;;2.31;83.05;95274.97;5073361;28;1436;-61
2024/01/09 06:13:32;;;;;;;;;;;;;;;2.26;82.97;95286.81;5076147;28;1687;-61
2024/01/09 06:16:04;;;;;;;;;;;;;;;2.08;82.22;95295.03;5076392;28;1611;-62
2024/01/09 06:18:37;;;;;;;;;;;;;;;1.94;81.04;95295.16;5076424;28;1524;-62
2024/01/09 06:21:09;;;;;;;;;;;;;;;1.96;78.70;95309.09;5076362;28;1557;-61
2024/01/09 06:23:41;;;;;;;;;;;;;;;1.99;79.99;95310.66;5076330;28;1517;-62
2024/01/09 06:26:14;;;;;;;;;;;;;;;2.09;79.76;95320.50;5076001;28;1995;-62
2024/01/09 06:28:46;;;;;;;;;;;;;;;2.02;81.05;95327.13;5075832;28;1474;-62
2024/01/09 06:31:21;;;;;;;;;;;;;;;2.10;80.89;95321.31;5076064;28;942;-62
2024/01/09 06:33:53;;;;;;;;;;;;;;;1.94;80.29;95327.66;5076115;28;1634;-61
2024/01/09 06:36:27;;;;;;;;;;;;;;;1.88;80.44;95341.25;5076240;28;1432;-62
2024/01/09 06:38:58;;;;;;;;;;;;;;;1.94;81.50;95354.03;5075771;28;1528;-62
2024/01/09 06:41:31;;;;;;;;;;;;;;;1.92;79.95;95352.44;5075920;28;1663;-62
2024/01/09 06:44:03;;;;;;;;;;;;;;;1.87;79.54;95354.53;5075493;28;1545;-61
2024/01/09 06:46:36;;;;;;;;;;;;;;;1.78;79.95;95349.88;5075638;28;1914;-61
2024/01/09 06:49:09;;;;;;;;;;;;;;;1.70;81.46;95355.66;5075902;28;1590;-62
2024/01/09 06:51:43;;;;;;;;;;;;;;;1.68;81.40;95360.19;5075519;28;1670;-61
2024/01/09 06:54:16;;;;;;;;;;;;;;;1.72;81.51;95367.78;5075421;28;1662;-61
2024/01/09 06:56:47;;;;;;;;;;;;;;;1.83;80.28;95377.63;5075718;28;1521;-61
2024/01/09 06:59:21;;;;;;;;;;;;;;;1.88;79.68;95366.78;5075621;28;1442;-61
2024/01/09 07:01:54;;;;;;;;;;;;;;;1.83;78.12;95368.88;5075609;28;1754;-61
2024/01/09 07:04:26;;;;;;;;;;;;;;;1.71;78.69;95387.19;5075162;28;1623;-62
2024/01/09 07:06:58;;;;;;;;;;;;;;;1.68;79.93;95389.19;5075317;28;1912;-62
2024/01/09 07:09:30;;;;;;;;;;;;;;;1.87;78.45;95388.81;5075375;28;1519;-61
2024/01/09 07:12:02;;;;;;;;;;;;;;;1.85;78.25;95391.56;5075469;28;1572;-61
2024/01/09 07:14:34;;;;;;;;;;;;;;;1.82;79.70;95397.03;5075274;28;1517;-61
2024/01/09 07:17:07;;;;;;;;;;;;;;;1.86;78.62;95389.75;5075346;28;1578;-59
2024/01/09 07:19:39;;;;;;;;;;;;;;;1.94;78.10;95395.38;5075461;28;1573;-59
2024/01/09 07:22:11;;;;;;;;;;;;;;;1.95;78.34;95404.97;5075060;28;1579;-59
2024/01/09 07:24:42;;;;;;;;;;;;;;;1.88;77.96;95406.34;5057536;28;1790;-58
2024/01/09 07:27:13;;;;;;;;;;;;;;;1.85;78.72;95407.38;5074802;28;2032;-59
2024/01/09 07:29:44;;;;;;;;;;;;;;;1.83;78.08;95403.16;5075097;28;1608;-59
2024/01/09 07:32:16;;;;;;;;;;;;;;;1.80;78.62;95405.97;5074963;28;1501;-59
2024/01/09 07:34:49;;;;;;;;;;;;;;;1.75;78.49;95407.13;5074962;28;1477;-59
2024/01/09 07:37:24;;;;;;;;;;;;;;;1.67;78.21;95414.72;5074751;28;941;-61
2024/01/09 07:39:58;;;;;;;;;;;;;;;1.69;78.65;95414.59;5074686;28;1085;-61
2024/01/09 07:42:31;;;;;;;;;;;;;;;1.72;78.25;95415.25;5074472;28;1591;-62
2024/01/09 07:45:05;;;;;;;;;;;;;;;1.63;78.52;95421.13;5074642;28;1621;-61
2024/01/09 07:47:38;;;;;;;;;;;;;;;1.74;77.99;95430.97;5074440;28;2058;-61
2024/01/09 07:50:10;;;;;;;;;;;;;;;1.80;77.29;95438.47;5074576;28;1304;-62
2024/01/09 07:52:44;;;;;;;;;;;;;;;1.54;77.37;95438.38;5074831;28;1158;-61
2024/01/09 07:55:17;;;;;;;;;;;;;;;1.63;78.91;95444.00;5074554;28;1445;-61
2024/01/09 07:57:51;;;;;;;;;;;;;;;1.69;78.21;95457.63;5074194;28;2000;-61
2024/01/09 08:00:24;;;;;;;;;;;;;;;1.70;77.95;95461.94;5071585;28;1476;-61
2024/01/09 08:02:56;;;;;;;;;;;;;;;1.71;77.68;95462.81;5073754;28;1558;-61
2024/01/09 08:05:29;;;;;;;;;;;;;;;1.75;76.88;95473.03;5072029;28;2004;-61
2024/01/09 08:08:01;;;;;;;;;;;;;;;1.75;79.42;95470.41;5073863;28;1534;-61
2024/01/09 08:10:34;;;;;;;;;;;;;;;1.73;78.30;95456.50;5073870;28;1545;-61
2024/01/09 08:13:06;;;;;;;;;;;;;;;1.54;78.84;95472.66;5054951;28;1603;-61
2024/01/09 08:15:39;;;;;;;;;;;;;;;1.50;80.53;95488.72;5056884;28;1458;-60
2024/01/09 08:18:10;;;;;;;;;;;;;;;1.51;79.91;95487.81;5073388;28;1662;-61
2024/01/09 08:20:45;;;;;;;;;;;;;;;1.58;80.28;95485.63;5054108;28;1513;-60
2024/01/09 08:23:18;;;;;;;;;;;;;;;1.65;79.43;95481.63;5073593;28;1505;-61
2024/01/09 08:25:53;;;;;;;;;;;;;;;1.51;80.60;95485.16;5073692;28;1971;-60
2024/01/09 08:28:26;;;;;;;;;;;;;;;1.47;80.19;95488.94;5071439;28;1504;-60
2024/01/09 08:31:00;;;;;;;;;;;;;;;1.47;80.34;95496.84;5056378;28;1647;-61
2024/01/09 08:33:35;;;;;;;;;;;;;;;1.56;79.47;95499.75;5073281;28;1230;-60
2024/01/09 08:36:06;;;;;;;;;;;;;;;1.47;79.81;95515.31;5068256;28;1688;-61
2024/01/09 08:38:38;;;;;;;;;;;;;;;1.55;80.00;95505.94;5073309;28;1626;-61
2024/01/09 08:41:10;;;;;;;;;;;;;;;1.53;79.57;95512.28;5073303;28;1294;-61
2024/01/09 08:43:43;;;;;;;;;;;;;;;1.49;78.81;95526.59;5070172;28;1738;-61
2024/01/09 08:46:15;;;;;;;;;;;;;;;1.34;79.04;95515.22;5056173;28;1999;-61
2024/01/09 08:48:48;;;;;;;;;;;;;;;1.30;80.19;95519.00;5054637;28;1485;-61
2024/01/09 08:51:20;;;;;;;;;;;;;;;1.24;78.73;95517.59;5073263;28;1532;-61
2024/01/09 08:53:53;;;;;;;;;;;;;;;1.26;80.51;95520.97;5073518;28;1465;-62
2024/01/09 08:56:27;;;;;;;;;;;;;;;1.37;79.32;95536.13;5073462;28;1477;-62
2024/01/09 08:58:59;;;;;;;;;;;;;;;1.34;78.46;95531.88;5073606;28;1495;-61
2024/01/09 09:01:35;;;;;;;;;;;;;;;1.42;78.57;95535.81;5073221;28;1497;-60
2024/01/09 09:04:10;;;;;;;;;;;;;;;1.52;78.11;95550.13;5072967;28;1210;-60
2024/01/09 09:06:43;;;;;;;;;;;;;;;1.62;78.20;95543.31;5070766;28;1910;-60
2024/01/09 09:09:16;;;;;;;;;;;;;;;1.72;77.51;95547.06;5072914;28;1577;-60
2024/01/09 09:11:48;;;;;;;;;;;;;;;1.54;77.96;95542.97;5072962;28;1442;-60
2024/01/09 09:14:20;;;;;;;;;;;;;;;1.42;78.84;95546.34;5070378;28;1632;-59
2024/01/09 09:16:52;;;;;;;;;;;;;;;1.47;78.15;95541.66;5072785;28;1475;-59
2024/01/09 09:19:24;;;;;;;;;;;;;;;1.45;77.78;95546.19;5070853;28;1457;-59
2024/01/09 09:22:01;;;;;;;;;;;;;;;1.36;78.21;95551.06;5070061;28;1504;-60
2024/01/09 09:24:33;;;;;;;;;;;;;;;1.33;77.87;95560.97;5072747;28;1616;-60
2024/01/09 09:27:07;;;;;;;;;;;;;;;1.41;78.19;95553.41;5072581;28;1969;-60
2024/01/09 09:29:39;;;;;;;;;;;;;;;1.34;77.59;95558.22;5070114;28;1457;-59
2024/01/09 09:32:11;;;;;;;;;;;;;;;1.44;77.56;95549.72;5072612;28;1506;-60
2024/01/09 09:34:42;;;;;;;;;;;;;;;1.40;77.55;95556.97;5070459;28;1608;-60
2024/01/09 09:37:15;;;;;;;;;;;;;;;1.47;77.32;95539.00;5072669;28;1483;-60
2024/01/09 09:39:49;;;;;;;;;;;;;;;1.54;76.29;95542.97;5072523;28;1238;-60
2024/01/09 09:42:24;;;;;;;;;;;;;;;1.46;77.20;95530.28;5070078;28;1621;-60
2024/01/09 09:44:59;;;;;;;;;;;;;;;1.41;76.74;95537.63;5072214;28;1647;-60
2024/01/09 09:47:31;;;;;;;;;;;;;;;1.49;77.70;95545.03;5075312;28;1999;-60
2024/01/09 09:50:08;;;;;;;;;;;;;;;1.53;76.06;95549.16;5058192;28;1409;-60
2024/01/09 09:52:42;;;;;;;;;;;;;;;1.55;77.44;95548.13;5074062;28;1551;-60
2024/01/09 09:55:14;;;;;;;;;;;;;;;1.70;76.35;95556.84;5076473;28;1442;-60
2024/01/09 09:57:48;;;;;;;;;;;;;;;1.72;75.84;95546.22;5076260;28;1226;-60
2024/01/09 10:00:20;;;;;;;;;;;;;;;1.64;74.10;95561.69;5073470;28;1899;-60
2024/01/09 10:02:55;;;;;;;;;;;;;;;1.53;76.11;95538.63;5076247;28;1436;-59
2024/01/09 10:05:22;;;;;;;;;;;;;;;1.64;76.10;95543.22;5073918;28;1246;-60
2024/01/09 10:07:49;;;;;;;;;;;;;;;1.63;76.30;95542.38;5076351;28;1902;-60
2024/01/09 10:10:16;;;;;;;;;;;;;;;1.65;75.68;95540.50;5076138;28;1308;-60
2024/01/09 10:12:43;;;;;;;;;;;;;;;1.68;75.58;95532.38;5076105;28;1286;-60
2024/01/09 10:15:11;;;;;;;;;;;;;;;1.66;76.27;95542.19;5075855;28;1284;-60
2024/01/09 10:17:37;;;;;;;;;;;;;;;1.66;77.17;95534.25;5075749;28;1368;-60
2024/01/09 10:20:04;;;;;;;;;;;;;;;1.78;77.29;95544.97;5075842;28;1226;-59
2024/01/09 10:22:33;;;;;;;;;;;;;;;1.78;76.20;95547.63;5075899;28;1273;-60
2024/01/09 10:24:59;;;;;;;;;;;;;;;1.56;75.41;95539.28;5075596;28;1616;-60
2024/01/09 10:27:26;;;;;;;;;;;;;;;1.66;75.81;95541.34;5075449;28;1906;-60
2024/01/09 10:29:52;;;;;;;;;;;;;;;1.71;75.65;95541.91;5091314;28;1279;-60
2024/01/09 10:32:19;;;;;;;;;;;;;;;1.46;76.40;95539.94;5075584;28;1285;-59
2024/01/09 10:34:45;;;;;;;;;;;;;;;1.50;75.77;95537.03;5075746;28;1288;-59
2024/01/09 10:37:12;;;;;;;;;;;;;;;1.52;74.94;95548.31;5075440;28;1245;-60
2024/01/09 10:39:38;;;;;;;;;;;;;;;1.45;75.63;95543.53;5091285;28;1344;-60
2024/01/09 10:42:06;;;;;;;;;;;;;;;1.54;74.39;95542.97;5075212;28;1247;-60
2024/01/09 10:44:32;;;;;;;;;;;;;;;1.46;75.61;95539.94;5075330;28;1357;-60
2024/01/09 10:46:59;;;;;;;;;;;;;;;1.59;73.98;95556.69;5075473;28;1981;-60
2024/01/09 10:49:25;;;;;;;;;;;;;;;1.55;74.89;95545.47;5075258;28;1374;-59
2024/01/09 10:51:52;;;;;;;;;;;;;;;1.76;73.66;95542.44;5075734;28;1210;-60
2024/01/09 10:54:20;;;;;;;;;;;;;;;1.80;74.25;95538.66;5075496;28;1100;-60
2024/01/09 10:56:47;;;;;;;;;;;;;;;1.62;73.55;95545.94;5075559;28;1055;-59
2024/01/09 10:59:14;;;;;;;;;;;;;;;1.61;74.80;95544.25;5074193;28;1013;-60
2024/01/09 11:01:40;;;;;;;;;;;;;;;1.67;73.75;95541.25;5075553;28;1107;-60
2024/01/09 11:04:07;;;;;;;;;;;;;;;1.56;74.47;95536.66;5057690;28;1025;-60
2024/01/09 11:06:35;;;;;;;;;;;;;;;1.49;74.08;95534.50;5075280;28;1902;-59
2024/01/09 11:09:04;;;;;;;;;;;;;;;1.67;73.30;95540.38;5075542;28;1015;-59
2024/01/09 11:11:33;;;;;;;;;;;;;;;1.69;73.27;95533.22;5075540;28;972;-60
2024/01/09 11:14:06;;;;;;;;;;;;;;;1.70;75.34;95538.41;5075467;28;932;-59
2024/01/09 11:16:35;;;;;;;;;;;;;;;1.87;72.41;95531.22;5075203;28;1048;-60
2024/01/09 11:19:02;;;;;;;;;;;;;;;1.91;74.38;95525.63;5075388;28;1053;-60
2024/01/09 11:21:28;;;;;;;;;;;;;;;2.06;72.67;95536.97;5075220;28;1008;-60
2024/01/09 11:24:00;;;;;;;;;;;;;;;1.77;71.21;95532.75;5075375;28;1027;-61
2024/01/09 11:26:32;;;;;;;;;;;;;;;1.66;72.75;95529.00;5075230;28;1910;-58
2024/01/09 11:28:59;;;;;;;;;;;;;;;1.62;72.23;95539.84;5075195;28;1017;-59
2024/01/09 11:31:26;;;;;;;;;;;;;;;1.59;71.73;95535.59;5075119;28;963;-59
2024/01/09 11:33:54;;;;;;;;;;;;;;;1.52;71.49;95539.59;5074937;28;1036;-59
2024/01/09 11:36:20;;;;;;;;;;;;;;;1.58;71.47;95541.00;5074833;28;1045;-59
2024/01/09 11:38:48;;;;;;;;;;;;;;;1.53;72.45;95544.72;5075104;28;979;-59
2024/01/09 11:41:14;;;;;;;;;;;;;;;1.46;71.94;95548.72;5074701;28;989;-61
2024/01/09 11:43:56;;;;;;;;;;;;;;;1.46;72.46;95551.34;5074617;28;1236;-61
2024/01/09 11:46:22;;;;;;;;;;;;;;;1.41;72.42;95558.69;5074601;28;1906;-61
2024/01/09 11:48:48;;;;;;;;;;;;;;;1.45;72.81;95565.47;5056851;28;1111;-60
2024/01/09 11:51:14;;;;;;;;;;;;;;;1.55;71.89;95573.63;5074343;28;1301;-60
2024/01/09 11:53:40;;;;;;;;;;;;;;;1.40;72.15;95567.53;5074540;28;1253;-60
2024/01/09 11:56:12;;;;;;;;;;;;;;;1.33;72.23;95580.25;5074451;28;1036;-60
2024/01/09 11:58:38;;;;;;;;;;;;;;;1.49;71.52;95576.66;5057035;28;1044;-60
2024/01/09 12:01:05;;;;;;;;;;;;;;;1.40;71.89;95582.50;5074508;28;1095;-60
2024/01/09 12:03:33;;;;;;;;;;;;;;;1.30;72.28;95588.31;5074227;28;1179;-61
2024/01/09 12:05:59;;;;;;;;;;;;;;;1.23;72.83;95592.28;5074282;28;1899;-60
2024/01/09 12:08:25;;;;;;;;;;;;;;;1.31;72.82;95597.94;5073759;28;1186;-61
2024/01/09 12:10:51;;;;;;;;;;;;;;;1.35;71.93;95596.81;5073325;28;1281;-60
2024/01/09 12:13:17;;;;;;;;;;;;;;;1.35;72.46;95598.59;5055790;28;1313;-60
2024/01/09 12:15:44;;;;;;;;;;;;;;;1.10;72.55;95608.00;5073858;28;1292;-61
2024/01/09 12:18:10;;;;;;;;;;;;;;;1.03;72.96;95611.09;5070839;28;1225;-61
2024/01/09 12:20:36;;;;;;;;;;;;;;;1.16;73.08;95614.69;5073435;28;1222;-61
2024/01/09 12:23:02;;;;;;;;;;;;;;;1.09;74.73;95616.81;5073490;28;1258;-61
2024/01/09 12:25:28;;;;;;;;;;;;;;;1.05;74.28;95619.75;5055798;28;1329;-62
2024/01/09 12:27:55;;;;;;;;;;;;;;;0.88;73.71;95628.63;5073390;28;2007;-61
2024/01/09 12:30:22;;;;;;;;;;;;;;;0.85;73.16;95641.97;5073584;28;1336;-61
2024/01/09 12:32:48;;;;;;;;;;;;;;;0.76;73.74;95646.00;5073520;28;1328;-61
2024/01/09 12:35:14;;;;;;;;;;;;;;;0.72;73.81;95655.00;5073212;28;1285;-62
2024/01/09 12:37:40;;;;;;;;;;;;;;;0.71;73.64;95655.94;5055497;28;1230;-62
2024/01/09 12:40:09;;;;;;;;;;;;;;;0.68;73.22;95661.38;5055622;28;1364;-62
2024/01/09 12:42:36;;;;;;;;;;;;;;;0.76;72.56;95669.69;5072857;28;1237;-63
2024/01/09 12:45:02;;;;;;;;;;;;;;;0.62;73.69;95670.47;5073105;28;1266;-62
2024/01/09 12:47:28;;;;;;;;;;;;;;;0.50;73.71;95674.66;5055442;28;1993;-63
2024/01/09 12:49:55;;;;;;;;;;;;;;;0.41;73.23;95682.22;5072978;28;1230;-62
2024/01/09 12:52:22;;;;;;;;;;;;;;;0.43;73.20;95678.56;5072817;28;1312;-62
2024/01/09 12:54:48;;;;;;;;;;;;;;;0.25;73.88;95690.09;5073202;28;1375;-62
2024/01/09 12:57:14;;;;;;;;;;;;;;;0.24;72.61;95697.16;5073041;28;1292;-62
2024/01/09 12:59:40;;;;;;;;;;;;;;;0.25;72.37;95692.75;5055396;28;1317;-61
2024/01/09 13:02:08;;;;;;;;;;;;;;;0.14;72.96;95698.59;5073357;28;1091;-61
2024/01/09 13:04:34;;;;;;;;;;;;;;;0.26;73.88;95715.50;5073278;28;1003;-61
2024/01/09 13:07:00;;;;;;;;;;;;;;;0.31;72.61;95718.72;5073429;28;1902;-62
2024/01/09 13:09:27;;;;;;;;;;;;;;;0.15;72.36;95708.19;5073426;28;978;-59
2024/01/09 13:11:53;;;;;;;;;;;;;;;0.09;72.40;95701.47;5072872;28;1363;-59
2024/01/09 13:14:19;;;;;;;;;;;;;;;0.11;71.77;95715.38;5072955;28;1324;-60
2024/01/09 13:16:46;;;;;;;;;;;;;;;0.07;72.01;95713.88;5072981;28;1586;-61
2024/01/09 13:19:13;;;;;;;;;;;;;;;0.05;72.86;95717.53;5072557;28;1233;-60
2024/01/09 13:21:39;;;;;;;;;;;;;;;-0.07;73.19;95729.56;5072177;28;1309;-60
2024/01/09 13:24:07;;;;;;;;;;;;;;;-0.05;72.33;95736.41;5072644;28;1273;-60
2024/01/09 13:26:34;;;;;;;;;;;;;;;-0.20;71.19;95732.81;5072646;28;1985;-61
2024/01/09 13:29:02;;;;;;;;;;;;;;;-0.25;71.24;95737.50;5072922;28;1289;-62
2024/01/09 13:31:28;;;;;;;;;;;;;;;-0.35;72.36;95738.03;5072597;28;1218;-62
2024/01/09 13:33:54;;;;;;;;;;;;;;;-0.33;70.91;95752.78;5070093;28;1131;-62